sensor_id;sensor_type;location;lat;lon;timestamp;temperature;humidity
15930;DHT22;8064;51.142;4.780;2022-07-06T00:01:37;14.40;92.80
15930;DHT22;8064;51.142;4.780;2022-07-06T00:04:03;14.40;92.80
15930;DHT22;8064;51.142;4.780;2022-07-06T00:06:29;14.40;92.90
15930;DHT22;8064;51.142;4.780;2022-07-06T00:08:55;14.40;92.90
15930;DHT22;8064;51.142;4.780;2022-07-06T00:11:20;14.30;92.90
15930;DHT22;8064;51.142;4.780;2022-07-06T00:13:46;14.30;93.00
15930;DHT22;8064;51.142;4.780;2022-07-06T00:16:12;14.20;93.00
15930;DHT22;8064;51.142;4.780;2022-07-06T00:18:38;14.20;93.00
15930;DHT22;8064;51.142;4.780;2022-07-06T00:21:04;14.20;93.10
15930;DHT22;8064;51.142;4.780;2022-07-06T00:23:30;14.10;93.10
15930;DHT22;8064;51.142;4.780;2022-07-06T00:25:55;14.10;93.20
15930;DHT22;8064;51.142;4.780;2022-07-06T00:28:21;14.10;93.20
15930;DHT22;8064;51.142;4.780;2022-07-06T00:30:47;14.00;93.20
15930;DHT22;8064;51.142;4.780;2022-07-06T00:33:13;14.00;93.30
15930;DHT22;8064;51.142;4.780;2022-07-06T00:35:38;14.00;93.40
15930;DHT22;8064;51.142;4.780;2022-07-06T00:38:04;14.00;93.40
15930;DHT22;8064;51.142;4.780;2022-07-06T00:40:30;13.90;93.50
15930;DHT22;8064;51.142;4.780;2022-07-06T00:42:56;13.90;93.50
15930;DHT22;8064;51.142;4.780;2022-07-06T00:45:22;13.90;93.50
15930;DHT22;8064;51.142;4.780;2022-07-06T00:47:48;13.90;93.50
15930;DHT22;8064;51.142;4.780;2022-07-06T00:50:15;13.80;93.50
15930;DHT22;8064;51.142;4.780;2022-07-06T00:53:03;13.80;93.50
15930;DHT22;8064;51.142;4.780;2022-07-06T00:55:31;13.70;93.50
15930;DHT22;8064;51.142;4.780;2022-07-06T00:57:58;13.70;93.50
15930;DHT22;8064;51.142;4.780;2022-07-06T01:00:27;13.70;93.50
15930;DHT22;8064;51.142;4.780;2022-07-06T01:02:54;13.70;93.60
15930;DHT22;8064;51.142;4.780;2022-07-06T01:05:20;13.60;93.90
15930;DHT22;8064;51.142;4.780;2022-07-06T01:07:48;13.60;93.60
15930;DHT22;8064;51.142;4.780;2022-07-06T01:10:17;13.60;93.60
15930;DHT22;8064;51.142;4.780;2022-07-06T01:12:44;13.50;93.60
15930;DHT22;8064;51.142;4.780;2022-07-06T01:15:13;13.50;93.60
15930;DHT22;8064;51.142;4.780;2022-07-06T01:17:39;13.40;93.60
15930;DHT22;8064;51.142;4.780;2022-07-06T01:20:25;13.40;93.70
15930;DHT22;8064;51.142;4.780;2022-07-06T01:22:52;13.40;93.80
15930;DHT22;8064;51.142;4.780;2022-07-06T01:25:19;13.30;93.70
15930;DHT22;8064;51.142;4.780;2022-07-06T01:27:46;13.30;93.70
15930;DHT22;8064;51.142;4.780;2022-07-06T01:30:14;13.30;93.80
15930;DHT22;8064;51.142;4.780;2022-07-06T01:32:41;13.30;93.90
15930;DHT22;8064;51.142;4.780;2022-07-06T01:35:09;13.20;93.90
15930;DHT22;8064;51.142;4.780;2022-07-06T01:37:36;13.20;93.90
15930;DHT22;8064;51.142;4.780;2022-07-06T01:40:04;13.20;94.00
15930;DHT22;8064;51.142;4.780;2022-07-06T01:42:31;13.20;94.10
15930;DHT22;8064;51.142;4.780;2022-07-06T01:44:57;13.20;94.20
15930;DHT22;8064;51.142;4.780;2022-07-06T01:47:23;13.30;94.30
15930;DHT22;8064;51.142;4.780;2022-07-06T01:49:49;13.30;94.30
15930;DHT22;8064;51.142;4.780;2022-07-06T01:52:14;13.30;94.30
15930;DHT22;8064;51.142;4.780;2022-07-06T01:54:40;13.30;94.40
15930;DHT22;8064;51.142;4.780;2022-07-06T01:57:06;13.40;94.40
15930;DHT22;8064;51.142;4.780;2022-07-06T01:59:32;13.40;94.40
15930;DHT22;8064;51.142;4.780;2022-07-06T02:01:57;13.40;94.50
15930;DHT22;8064;51.142;4.780;2022-07-06T02:04:23;13.50;94.50
15930;DHT22;8064;51.142;4.780;2022-07-06T02:06:49;13.50;94.50
15930;DHT22;8064;51.142;4.780;2022-07-06T02:09:15;13.50;94.40
15930;DHT22;8064;51.142;4.780;2022-07-06T02:11:42;13.50;94.40
15930;DHT22;8064;51.142;4.780;2022-07-06T02:14:08;13.40;94.40
15930;DHT22;8064;51.142;4.780;2022-07-06T02:16:33;13.40;94.40
15930;DHT22;8064;51.142;4.780;2022-07-06T02:18:59;13.40;94.50
15930;DHT22;8064;51.142;4.780;2022-07-06T02:21:25;13.40;94.60
15930;DHT22;8064;51.142;4.780;2022-07-06T02:23:51;13.40;94.60
15930;DHT22;8064;51.142;4.780;2022-07-06T02:26:16;13.40;94.70
15930;DHT22;8064;51.142;4.780;2022-07-06T02:28:42;13.40;94.70
15930;DHT22;8064;51.142;4.780;2022-07-06T02:31:08;13.40;94.80
15930;DHT22;8064;51.142;4.780;2022-07-06T02:33:35;13.40;94.80
15930;DHT22;8064;51.142;4.780;2022-07-06T02:36:00;13.40;94.90
15930;DHT22;8064;51.142;4.780;2022-07-06T02:38:26;13.40;94.90
15930;DHT22;8064;51.142;4.780;2022-07-06T02:40:52;13.40;94.90
15930;DHT22;8064;51.142;4.780;2022-07-06T02:43:17;13.40;94.90
15930;DHT22;8064;51.142;4.780;2022-07-06T02:45:43;13.40;95.00
15930;DHT22;8064;51.142;4.780;2022-07-06T02:48:09;13.40;95.00
15930;DHT22;8064;51.142;4.780;2022-07-06T02:50:35;13.40;95.10
15930;DHT22;8064;51.142;4.780;2022-07-06T02:53:00;13.40;95.10
15930;DHT22;8064;51.142;4.780;2022-07-06T02:55:27;13.40;95.20
15930;DHT22;8064;51.142;4.780;2022-07-06T02:57:54;13.40;95.20
15930;DHT22;8064;51.142;4.780;2022-07-06T03:00:19;13.40;95.20
15930;DHT22;8064;51.142;4.780;2022-07-06T03:02:45;13.40;95.30
15930;DHT22;8064;51.142;4.780;2022-07-06T03:05:11;13.40;95.30
15930;DHT22;8064;51.142;4.780;2022-07-06T03:07:37;13.40;95.30
15930;DHT22;8064;51.142;4.780;2022-07-06T03:10:03;13.40;95.40
15930;DHT22;8064;51.142;4.780;2022-07-06T03:12:28;13.30;95.30
15930;DHT22;8064;51.142;4.780;2022-07-06T03:14:54;13.30;95.40
15930;DHT22;8064;51.142;4.780;2022-07-06T03:17:20;13.20;95.30
15930;DHT22;8064;51.142;4.780;2022-07-06T03:19:47;13.20;95.40
15930;DHT22;8064;51.142;4.780;2022-07-06T03:22:12;13.20;95.40
15930;DHT22;8064;51.142;4.780;2022-07-06T03:24:38;13.20;95.50
15930;DHT22;8064;51.142;4.780;2022-07-06T03:27:04;13.20;95.50
15930;DHT22;8064;51.142;4.780;2022-07-06T03:29:30;13.20;95.50
15930;DHT22;8064;51.142;4.780;2022-07-06T03:31:56;13.20;95.50
15930;DHT22;8064;51.142;4.780;2022-07-06T03:34:21;13.20;95.60
15930;DHT22;8064;51.142;4.780;2022-07-06T03:36:47;13.20;95.60
15930;DHT22;8064;51.142;4.780;2022-07-06T03:39:13;13.20;95.60
15930;DHT22;8064;51.142;4.780;2022-07-06T03:41:39;13.20;96.00
15930;DHT22;8064;51.142;4.780;2022-07-06T03:44:04;13.30;95.70
15930;DHT22;8064;51.142;4.780;2022-07-06T03:46:30;13.30;95.70
15930;DHT22;8064;51.142;4.780;2022-07-06T03:48:56;13.40;95.70
15930;DHT22;8064;51.142;4.780;2022-07-06T03:51:22;13.40;95.80
15930;DHT22;8064;51.142;4.780;2022-07-06T03:53:48;13.40;95.80
15930;DHT22;8064;51.142;4.780;2022-07-06T03:56:13;13.50;95.90
15930;DHT22;8064;51.142;4.780;2022-07-06T03:58:59;13.50;95.90
15930;DHT22;8064;51.142;4.780;2022-07-06T04:01:26;13.50;95.90
15930;DHT22;8064;51.142;4.780;2022-07-06T04:03:52;13.60;96.00
15930;DHT22;8064;51.142;4.780;2022-07-06T04:06:18;13.60;96.00
15930;DHT22;8064;51.142;4.780;2022-07-06T04:08:45;13.70;96.00
15930;DHT22;8064;51.142;4.780;2022-07-06T04:11:11;13.70;96.00
15930;DHT22;8064;51.142;4.780;2022-07-06T04:13:37;13.70;95.90
15930;DHT22;8064;51.142;4.780;2022-07-06T04:16:05;13.80;96.30
15930;DHT22;8064;51.142;4.780;2022-07-06T04:18:31;13.80;95.90
15930;DHT22;8064;51.142;4.780;2022-07-06T04:20:57;13.80;95.90
15930;DHT22;8064;51.142;4.780;2022-07-06T04:23:23;13.80;95.90
15930;DHT22;8064;51.142;4.780;2022-07-06T04:25:49;13.90;95.90
15930;DHT22;8064;51.142;4.780;2022-07-06T04:28:15;13.90;95.90
15930;DHT22;8064;51.142;4.780;2022-07-06T04:30:41;13.90;95.90
15930;DHT22;8064;51.142;4.780;2022-07-06T04:33:07;13.90;95.90
15930;DHT22;8064;51.142;4.780;2022-07-06T04:35:33;13.90;96.00
15930;DHT22;8064;51.142;4.780;2022-07-06T04:37:59;13.90;96.00
15930;DHT22;8064;51.142;4.780;2022-07-06T04:40:24;13.90;96.00
15930;DHT22;8064;51.142;4.780;2022-07-06T04:42:50;13.90;96.00
15930;DHT22;8064;51.142;4.780;2022-07-06T04:45:16;14.00;96.10
15930;DHT22;8064;51.142;4.780;2022-07-06T04:47:42;14.00;96.20
15930;DHT22;8064;51.142;4.780;2022-07-06T04:50:10;14.00;96.20
15930;DHT22;8064;51.142;4.780;2022-07-06T04:52:36;14.10;96.30
15930;DHT22;8064;51.142;4.780;2022-07-06T04:55:02;14.10;96.30
15930;DHT22;8064;51.142;4.780;2022-07-06T04:57:30;14.20;96.30
15930;DHT22;8064;51.142;4.780;2022-07-06T04:59:56;14.20;96.30
15930;DHT22;8064;51.142;4.780;2022-07-06T05:02:22;14.30;96.30
15930;DHT22;8064;51.142;4.780;2022-07-06T05:04:48;14.30;96.30
15930;DHT22;8064;51.142;4.780;2022-07-06T05:07:14;14.40;96.40
15930;DHT22;8064;51.142;4.780;2022-07-06T05:09:39;14.40;96.40
15930;DHT22;8064;51.142;4.780;2022-07-06T05:12:06;14.50;96.40
15930;DHT22;8064;51.142;4.780;2022-07-06T05:14:32;14.50;96.40
15930;DHT22;8064;51.142;4.780;2022-07-06T05:16:57;14.60;96.50
15930;DHT22;8064;51.142;4.780;2022-07-06T05:19:23;14.60;96.50
15930;DHT22;8064;51.142;4.780;2022-07-06T05:21:49;14.70;96.60
15930;DHT22;8064;51.142;4.780;2022-07-06T05:24:14;14.80;96.60
15930;DHT22;8064;51.142;4.780;2022-07-06T05:26:41;14.90;96.60
15930;DHT22;8064;51.142;4.780;2022-07-06T05:29:07;15.00;96.70
15930;DHT22;8064;51.142;4.780;2022-07-06T05:31:33;15.10;96.70
15930;DHT22;8064;51.142;4.780;2022-07-06T05:33:59;15.20;96.70
15930;DHT22;8064;51.142;4.780;2022-07-06T05:36:24;15.30;96.70
15930;DHT22;8064;51.142;4.780;2022-07-06T05:38:50;15.30;96.70
15930;DHT22;8064;51.142;4.780;2022-07-06T05:41:16;15.40;96.70
15930;DHT22;8064;51.142;4.780;2022-07-06T05:43:42;15.50;96.70
15930;DHT22;8064;51.142;4.780;2022-07-06T05:46:07;15.50;96.70
15930;DHT22;8064;51.142;4.780;2022-07-06T05:48:33;15.60;96.70
15930;DHT22;8064;51.142;4.780;2022-07-06T05:51:18;15.60;96.60
15930;DHT22;8064;51.142;4.780;2022-07-06T05:53:43;15.70;96.70
15930;DHT22;8064;51.142;4.780;2022-07-06T05:56:09;15.70;96.60
15930;DHT22;8064;51.142;4.780;2022-07-06T05:58:35;15.80;96.70
15930;DHT22;8064;51.142;4.780;2022-07-06T06:01:01;15.80;96.70
15930;DHT22;8064;51.142;4.780;2022-07-06T06:03:26;15.80;96.70
15930;DHT22;8064;51.142;4.780;2022-07-06T06:05:52;15.90;96.70
15930;DHT22;8064;51.142;4.780;2022-07-06T06:08:18;16.00;96.70
15930;DHT22;8064;51.142;4.780;2022-07-06T06:10:44;16.10;96.70
15930;DHT22;8064;51.142;4.780;2022-07-06T06:13:09;16.20;96.70
15930;DHT22;8064;51.142;4.780;2022-07-06T06:15:35;16.30;96.70
15930;DHT22;8064;51.142;4.780;2022-07-06T06:18:01;16.40;96.60
15930;DHT22;8064;51.142;4.780;2022-07-06T06:20:29;16.50;96.50
15930;DHT22;8064;51.142;4.780;2022-07-06T06:22:57;16.70;96.60
15930;DHT22;8064;51.142;4.780;2022-07-06T06:28:13;17.10;96.50
15930;DHT22;8064;51.142;4.780;2022-07-06T06:30:39;17.30;96.30
15930;DHT22;8064;51.142;4.780;2022-07-06T06:35:31;17.70;96.10
15930;DHT22;8064;51.142;4.780;2022-07-06T06:37:57;17.90;96.00
15930;DHT22;8064;51.142;4.780;2022-07-06T06:40:23;18.10;95.90
15930;DHT22;8064;51.142;4.780;2022-07-06T06:42:48;18.20;95.60
15930;DHT22;8064;51.142;4.780;2022-07-06T06:45:15;18.40;95.40
15930;DHT22;8064;51.142;4.780;2022-07-06T06:47:42;18.60;95.20
15930;DHT22;8064;51.142;4.780;2022-07-06T06:50:10;18.80;95.00
15930;DHT22;8064;51.142;4.780;2022-07-06T06:52:38;19.00;94.80
15930;DHT22;8064;51.142;4.780;2022-07-06T06:55:06;19.20;94.50
15930;DHT22;8064;51.142;4.780;2022-07-06T06:57:38;19.40;94.20
15930;DHT22;8064;51.142;4.780;2022-07-06T07:00:05;19.60;93.90
15930;DHT22;8064;51.142;4.780;2022-07-06T07:02:32;19.70;93.70
15930;DHT22;8064;51.142;4.780;2022-07-06T07:04:58;19.70;93.30
15930;DHT22;8064;51.142;4.780;2022-07-06T07:07:23;19.90;93.10
15930;DHT22;8064;51.142;4.780;2022-07-06T07:09:49;20.00;93.00
15930;DHT22;8064;51.142;4.780;2022-07-06T07:12:15;20.00;92.80
15930;DHT22;8064;51.142;4.780;2022-07-06T07:14:43;20.10;92.60
15930;DHT22;8064;51.142;4.780;2022-07-06T07:17:09;20.20;92.40
15930;DHT22;8064;51.142;4.780;2022-07-06T07:19:37;20.20;92.20
15930;DHT22;8064;51.142;4.780;2022-07-06T07:22:03;20.40;92.00
15930;DHT22;8064;51.142;4.780;2022-07-06T07:24:29;20.50;91.80
15930;DHT22;8064;51.142;4.780;2022-07-06T07:26:54;20.70;91.80
15930;DHT22;8064;51.142;4.780;2022-07-06T07:29:20;20.90;91.80
15930;DHT22;8064;51.142;4.780;2022-07-06T07:31:46;21.10;91.70
15930;DHT22;8064;51.142;4.780;2022-07-06T07:34:12;21.30;91.40
15930;DHT22;8064;51.142;4.780;2022-07-06T07:36:38;21.40;91.10
15930;DHT22;8064;51.142;4.780;2022-07-06T07:39:04;21.50;90.80
15930;DHT22;8064;51.142;4.780;2022-07-06T07:41:30;21.60;90.60
15930;DHT22;8064;51.142;4.780;2022-07-06T07:43:56;21.70;90.50
15930;DHT22;8064;51.142;4.780;2022-07-06T07:46:22;21.90;90.30
15930;DHT22;8064;51.142;4.780;2022-07-06T07:48:48;22.00;90.00
15930;DHT22;8064;51.142;4.780;2022-07-06T07:51:14;22.10;90.00
15930;DHT22;8064;51.142;4.780;2022-07-06T07:53:40;22.20;88.80
15930;DHT22;8064;51.142;4.780;2022-07-06T07:56:05;22.30;88.30
15930;DHT22;8064;51.142;4.780;2022-07-06T07:58:31;22.40;87.20
15930;DHT22;8064;51.142;4.780;2022-07-06T08:00:57;22.40;86.60
15930;DHT22;8064;51.142;4.780;2022-07-06T08:03:23;22.40;86.50
15930;DHT22;8064;51.142;4.780;2022-07-06T08:05:49;22.40;86.30
15930;DHT22;8064;51.142;4.780;2022-07-06T08:08:16;22.40;86.00
15930;DHT22;8064;51.142;4.780;2022-07-06T08:10:42;22.40;85.30
15930;DHT22;8064;51.142;4.780;2022-07-06T08:13:08;22.30;84.90
15930;DHT22;8064;51.142;4.780;2022-07-06T08:15:34;22.30;84.80
15930;DHT22;8064;51.142;4.780;2022-07-06T08:18:00;22.40;84.60
15930;DHT22;8064;51.142;4.780;2022-07-06T08:20:26;22.50;84.50
15930;DHT22;8064;51.142;4.780;2022-07-06T08:22:52;22.60;84.40
15930;DHT22;8064;51.142;4.780;2022-07-06T08:25:18;22.60;84.10
15930;DHT22;8064;51.142;4.780;2022-07-06T08:27:44;22.70;83.60
15930;DHT22;8064;51.142;4.780;2022-07-06T08:30:10;22.80;83.00
15930;DHT22;8064;51.142;4.780;2022-07-06T08:32:39;23.00;82.70
15930;DHT22;8064;51.142;4.780;2022-07-06T08:35:05;23.20;82.40
15930;DHT22;8064;51.142;4.780;2022-07-06T08:37:31;23.30;82.20
15930;DHT22;8064;51.142;4.780;2022-07-06T08:39:57;23.40;82.10
15930;DHT22;8064;51.142;4.780;2022-07-06T08:42:27;23.50;81.80
15930;DHT22;8064;51.142;4.780;2022-07-06T08:44:55;23.70;81.30
15930;DHT22;8064;51.142;4.780;2022-07-06T08:47:26;23.80;81.20
15930;DHT22;8064;51.142;4.780;2022-07-06T08:49:52;23.80;80.90
15930;DHT22;8064;51.142;4.780;2022-07-06T08:52:18;23.80;80.60
15930;DHT22;8064;51.142;4.780;2022-07-06T08:54:44;23.90;80.10
15930;DHT22;8064;51.142;4.780;2022-07-06T08:57:10;23.90;79.50
15930;DHT22;8064;51.142;4.780;2022-07-06T08:59:38;23.80;79.20
15930;DHT22;8064;51.142;4.780;2022-07-06T09:02:04;23.70;78.90
15930;DHT22;8064;51.142;4.780;2022-07-06T09:04:32;23.60;78.40
15930;DHT22;8064;51.142;4.780;2022-07-06T09:06:58;23.50;78.20
15930;DHT22;8064;51.142;4.780;2022-07-06T09:09:24;23.40;77.70
15930;DHT22;8064;51.142;4.780;2022-07-06T09:11:51;23.40;76.70
15930;DHT22;8064;51.142;4.780;2022-07-06T09:14:17;23.40;76.50
15930;DHT22;8064;51.142;4.780;2022-07-06T09:16:45;23.40;77.20
15930;DHT22;8064;51.142;4.780;2022-07-06T09:19:12;23.40;77.40
15930;DHT22;8064;51.142;4.780;2022-07-06T09:21:39;23.30;77.50
15930;DHT22;8064;51.142;4.780;2022-07-06T09:24:09;23.30;77.60
15930;DHT22;8064;51.142;4.780;2022-07-06T09:26:35;23.30;77.20
15930;DHT22;8064;51.142;4.780;2022-07-06T09:29:02;23.30;77.20
15930;DHT22;8064;51.142;4.780;2022-07-06T09:31:28;23.30;77.60
15930;DHT22;8064;51.142;4.780;2022-07-06T09:33:56;23.30;78.30
15930;DHT22;8064;51.142;4.780;2022-07-06T09:39:27;23.20;78.90
15930;DHT22;8064;51.142;4.780;2022-07-06T09:41:55;23.10;78.70
15930;DHT22;8064;51.142;4.780;2022-07-06T09:47:09;23.00;79.00
15930;DHT22;8064;51.142;4.780;2022-07-06T09:49:36;23.10;79.00
15930;DHT22;8064;51.142;4.780;2022-07-06T09:52:04;23.10;78.80
15930;DHT22;8064;51.142;4.780;2022-07-06T09:54:30;23.00;78.90
15930;DHT22;8064;51.142;4.780;2022-07-06T09:56:57;23.00;79.40
15930;DHT22;8064;51.142;4.780;2022-07-06T09:59:27;23.00;79.70
15930;DHT22;8064;51.142;4.780;2022-07-06T10:01:55;23.00;79.70
15930;DHT22;8064;51.142;4.780;2022-07-06T10:04:23;23.10;79.40
15930;DHT22;8064;51.142;4.780;2022-07-06T10:06:49;23.10;79.10
15930;DHT22;8064;51.142;4.780;2022-07-06T10:09:15;23.20;79.00
15930;DHT22;8064;51.142;4.780;2022-07-06T10:11:47;23.20;78.40
15930;DHT22;8064;51.142;4.780;2022-07-06T10:14:17;23.30;78.40
15930;DHT22;8064;51.142;4.780;2022-07-06T10:16:45;23.40;78.60
15930;DHT22;8064;51.142;4.780;2022-07-06T10:19:11;23.50;78.60
15930;DHT22;8064;51.142;4.780;2022-07-06T10:21:40;23.80;78.50
15930;DHT22;8064;51.142;4.780;2022-07-06T10:24:07;24.00;78.30
15930;DHT22;8064;51.142;4.780;2022-07-06T10:26:35;24.30;77.80
15930;DHT22;8064;51.142;4.780;2022-07-06T10:29:02;24.70;77.60
15930;DHT22;8064;51.142;4.780;2022-07-06T10:31:29;24.90;76.80
15930;DHT22;8064;51.142;4.780;2022-07-06T10:33:57;25.10;75.60
15930;DHT22;8064;51.142;4.780;2022-07-06T10:36:23;25.20;74.30
15930;DHT22;8064;51.142;4.780;2022-07-06T10:38:50;25.30;73.80
15930;DHT22;8064;51.142;4.780;2022-07-06T10:41:17;25.40;73.90
15930;DHT22;8064;51.142;4.780;2022-07-06T10:43:45;25.50;73.20
15930;DHT22;8064;51.142;4.780;2022-07-06T10:46:13;25.50;73.10
15930;DHT22;8064;51.142;4.780;2022-07-06T10:48:42;25.50;73.10
15930;DHT22;8064;51.142;4.780;2022-07-06T10:51:11;25.40;72.10
15930;DHT22;8064;51.142;4.780;2022-07-06T10:53:39;25.30;72.40
15930;DHT22;8064;51.142;4.780;2022-07-06T10:56:07;25.30;72.70
15930;DHT22;8064;51.142;4.780;2022-07-06T10:58:52;25.30;72.70
15930;DHT22;8064;51.142;4.780;2022-07-06T11:01:19;25.30;73.00
15930;DHT22;8064;51.142;4.780;2022-07-06T11:06:23;25.40;72.30
15930;DHT22;8064;51.142;4.780;2022-07-06T11:19:16;25.80;69.80
15930;DHT22;8064;51.142;4.780;2022-07-06T11:24:29;25.60;69.60
15930;DHT22;8064;51.142;4.780;2022-07-06T11:26:56;25.60;69.60
15930;DHT22;8064;51.142;4.780;2022-07-06T11:29:24;25.50;69.50
15930;DHT22;8064;51.142;4.780;2022-07-06T11:31:53;25.40;69.20
15930;DHT22;8064;51.142;4.780;2022-07-06T11:34:36;25.20;68.20
15930;DHT22;8064;51.142;4.780;2022-07-06T11:37:06;25.00;69.40
15930;DHT22;8064;51.142;4.780;2022-07-06T11:39:35;24.80;70.30
15930;DHT22;8064;51.142;4.780;2022-07-06T11:42:02;24.80;70.90
15930;DHT22;8064;51.142;4.780;2022-07-06T11:44:30;24.70;70.70
15930;DHT22;8064;51.142;4.780;2022-07-06T11:46:56;24.70;70.20
15930;DHT22;8064;51.142;4.780;2022-07-06T11:49:23;24.70;69.60
15930;DHT22;8064;51.142;4.780;2022-07-06T11:51:49;24.70;69.20
15930;DHT22;8064;51.142;4.780;2022-07-06T11:54:18;24.70;69.60
15930;DHT22;8064;51.142;4.780;2022-07-06T11:56:56;24.70;70.70
15930;DHT22;8064;51.142;4.780;2022-07-06T11:59:26;24.70;71.00
15930;DHT22;8064;51.142;4.780;2022-07-06T12:02:05;24.70;71.40
15930;DHT22;8064;51.142;4.780;2022-07-06T12:04:33;24.60;71.60
15930;DHT22;8064;51.142;4.780;2022-07-06T12:07:01;24.50;72.10
15930;DHT22;8064;51.142;4.780;2022-07-06T12:09:30;24.50;71.90
15930;DHT22;8064;51.142;4.780;2022-07-06T12:11:56;24.40;71.70
15930;DHT22;8064;51.142;4.780;2022-07-06T12:14:22;24.30;72.10
15930;DHT22;8064;51.142;4.780;2022-07-06T12:16:49;24.40;72.50
15930;DHT22;8064;51.142;4.780;2022-07-06T12:19:15;24.40;72.30
15930;DHT22;8064;51.142;4.780;2022-07-06T12:21:45;24.50;72.50
15930;DHT22;8064;51.142;4.780;2022-07-06T12:24:19;24.40;72.70
15930;DHT22;8064;51.142;4.780;2022-07-06T12:26:45;24.40;71.80
15930;DHT22;8064;51.142;4.780;2022-07-06T12:29:12;24.30;72.00
15930;DHT22;8064;51.142;4.780;2022-07-06T12:31:55;24.30;72.70
15930;DHT22;8064;51.142;4.780;2022-07-06T12:34:24;24.30;73.00
15930;DHT22;8064;51.142;4.780;2022-07-06T12:37:21;24.30;72.50
15930;DHT22;8064;51.142;4.780;2022-07-06T12:39:47;24.30;72.10
15930;DHT22;8064;51.142;4.780;2022-07-06T12:42:14;24.30;72.60
15930;DHT22;8064;51.142;4.780;2022-07-06T12:44:44;24.20;72.50
15930;DHT22;8064;51.142;4.780;2022-07-06T12:47:10;24.30;71.50
15930;DHT22;8064;51.142;4.780;2022-07-06T12:49:39;24.30;71.50
15930;DHT22;8064;51.142;4.780;2022-07-06T12:54:35;24.30;71.60
15930;DHT22;8064;51.142;4.780;2022-07-06T13:00:03;24.10;70.20
15930;DHT22;8064;51.142;4.780;2022-07-06T13:02:33;24.00;70.40
15930;DHT22;8064;51.142;4.780;2022-07-06T13:05:04;23.90;70.90
15930;DHT22;8064;51.142;4.780;2022-07-06T13:07:32;23.90;71.00
15930;DHT22;8064;51.142;4.780;2022-07-06T13:10:02;23.90;71.50
15930;DHT22;8064;51.142;4.780;2022-07-06T13:12:28;23.80;71.40
15930;DHT22;8064;51.142;4.780;2022-07-06T13:14:54;23.90;71.30
15930;DHT22;8064;51.142;4.780;2022-07-06T13:17:20;23.90;72.10
15930;DHT22;8064;51.142;4.780;2022-07-06T13:19:46;24.00;72.80
15930;DHT22;8064;51.142;4.780;2022-07-06T13:22:12;23.90;72.80
15930;DHT22;8064;51.142;4.780;2022-07-06T13:24:38;23.90;72.70
15930;DHT22;8064;51.142;4.780;2022-07-06T13:27:05;23.90;73.20
15930;DHT22;8064;51.142;4.780;2022-07-06T13:29:31;23.90;73.70
15930;DHT22;8064;51.142;4.780;2022-07-06T13:31:57;23.90;74.10
15930;DHT22;8064;51.142;4.780;2022-07-06T13:34:23;24.00;73.90
15930;DHT22;8064;51.142;4.780;2022-07-06T13:36:50;23.90;73.20
15930;DHT22;8064;51.142;4.780;2022-07-06T13:39:16;24.00;73.70
15930;DHT22;8064;51.142;4.780;2022-07-06T13:41:42;24.00;73.50
15930;DHT22;8064;51.142;4.780;2022-07-06T13:44:08;24.00;74.00
15930;DHT22;8064;51.142;4.780;2022-07-06T13:46:35;24.10;73.70
15930;DHT22;8064;51.142;4.780;2022-07-06T13:49:03;24.20;73.70
15930;DHT22;8064;51.142;4.780;2022-07-06T13:51:29;24.30;72.90
15930;DHT22;8064;51.142;4.780;2022-07-06T13:53:56;24.30;72.50
15930;DHT22;8064;51.142;4.780;2022-07-06T13:56:22;24.40;72.70
15930;DHT22;8064;51.142;4.780;2022-07-06T13:58:48;24.50;73.00
15930;DHT22;8064;51.142;4.780;2022-07-06T14:01:14;24.50;73.00
15930;DHT22;8064;51.142;4.780;2022-07-06T14:03:40;24.50;73.00
15930;DHT22;8064;51.142;4.780;2022-07-06T14:06:06;24.50;73.00
15930;DHT22;8064;51.142;4.780;2022-07-06T14:08:34;24.50;73.50
15930;DHT22;8064;51.142;4.780;2022-07-06T14:11:00;24.50;73.40
15930;DHT22;8064;51.142;4.780;2022-07-06T14:13:26;24.50;72.90
15930;DHT22;8064;51.142;4.780;2022-07-06T14:15:53;24.50;72.60
15930;DHT22;8064;51.142;4.780;2022-07-06T14:18:19;24.60;72.90
15930;DHT22;8064;51.142;4.780;2022-07-06T14:20:46;24.50;72.90
15930;DHT22;8064;51.142;4.780;2022-07-06T14:23:13;24.60;73.40
15930;DHT22;8064;51.142;4.780;2022-07-06T14:25:40;24.60;73.30
15930;DHT22;8064;51.142;4.780;2022-07-06T14:28:06;24.50;73.10
15930;DHT22;8064;51.142;4.780;2022-07-06T14:30:33;24.50;72.60
15930;DHT22;8064;51.142;4.780;2022-07-06T14:32:59;24.50;73.00
15930;DHT22;8064;51.142;4.780;2022-07-06T14:35:25;24.40;72.70
15930;DHT22;8064;51.142;4.780;2022-07-06T14:37:51;24.40;72.80
15930;DHT22;8064;51.142;4.780;2022-07-06T14:40:17;24.30;72.90
15930;DHT22;8064;51.142;4.780;2022-07-06T14:42:44;24.30;73.30
15930;DHT22;8064;51.142;4.780;2022-07-06T14:45:10;24.30;73.60
15930;DHT22;8064;51.142;4.780;2022-07-06T14:47:36;24.40;73.80
15930;DHT22;8064;51.142;4.780;2022-07-06T14:50:03;24.30;73.50
15930;DHT22;8064;51.142;4.780;2022-07-06T14:52:28;24.20;73.70
15930;DHT22;8064;51.142;4.780;2022-07-06T14:54:54;24.20;74.20
15930;DHT22;8064;51.142;4.780;2022-07-06T14:57:20;24.10;74.30
15930;DHT22;8064;51.142;4.780;2022-07-06T14:59:46;24.10;74.30
15930;DHT22;8064;51.142;4.780;2022-07-06T15:02:11;24.10;74.40
15930;DHT22;8064;51.142;4.780;2022-07-06T15:04:37;24.10;74.60
15930;DHT22;8064;51.142;4.780;2022-07-06T15:07:03;24.10;74.80
15930;DHT22;8064;51.142;4.780;2022-07-06T15:09:29;24.10;75.00
15930;DHT22;8064;51.142;4.780;2022-07-06T15:11:56;24.10;75.30
15930;DHT22;8064;51.142;4.780;2022-07-06T15:14:22;24.10;75.50
15930;DHT22;8064;51.142;4.780;2022-07-06T15:16:48;24.10;75.50
15930;DHT22;8064;51.142;4.780;2022-07-06T15:19:14;24.10;75.30
15930;DHT22;8064;51.142;4.780;2022-07-06T15:21:40;24.10;75.50
15930;DHT22;8064;51.142;4.780;2022-07-06T15:24:06;24.10;75.90
15930;DHT22;8064;51.142;4.780;2022-07-06T15:26:32;24.10;76.10
15930;DHT22;8064;51.142;4.780;2022-07-06T15:28:58;24.00;75.40
15930;DHT22;8064;51.142;4.780;2022-07-06T15:31:24;24.00;75.50
15930;DHT22;8064;51.142;4.780;2022-07-06T15:33:49;24.00;76.00
15930;DHT22;8064;51.142;4.780;2022-07-06T15:36:15;24.00;76.20
15930;DHT22;8064;51.142;4.780;2022-07-06T15:38:42;24.00;76.40
15930;DHT22;8064;51.142;4.780;2022-07-06T15:41:08;23.90;76.80
15930;DHT22;8064;51.142;4.780;2022-07-06T15:43:34;23.90;77.00
15930;DHT22;8064;51.142;4.780;2022-07-06T15:46:01;23.90;76.90
15930;DHT22;8064;51.142;4.780;2022-07-06T15:48:28;23.90;77.30
15930;DHT22;8064;51.142;4.780;2022-07-06T15:50:54;23.80;77.30
15930;DHT22;8064;51.142;4.780;2022-07-06T15:53:21;23.80;77.30
15930;DHT22;8064;51.142;4.780;2022-07-06T15:55:47;23.80;77.50
15930;DHT22;8064;51.142;4.780;2022-07-06T15:58:13;23.90;77.70
15930;DHT22;8064;51.142;4.780;2022-07-06T16:00:40;24.00;77.70
15930;DHT22;8064;51.142;4.780;2022-07-06T16:03:05;24.00;77.70
15930;DHT22;8064;51.142;4.780;2022-07-06T16:05:31;24.00;77.60
15930;DHT22;8064;51.142;4.780;2022-07-06T16:07:57;24.00;77.40
15930;DHT22;8064;51.142;4.780;2022-07-06T16:10:23;24.00;77.10
15930;DHT22;8064;51.142;4.780;2022-07-06T16:12:49;24.00;77.00
15930;DHT22;8064;51.142;4.780;2022-07-06T16:15:17;23.90;77.50